sensor_id;sensor_type;location;lat;lon;timestamp;P1;durP1;ratioP1;P2;durP2;ratioP2
66478;SDS011;53294;47.912;13.526;2022-07-19T00:02:18;4.30;;;2.70;;
66478;SDS011;53294;47.912;13.526;2022-07-19T00:04:45;4.28;;;2.65;;
66478;SDS011;53294;47.912;13.526;2022-07-19T00:07:12;4.82;;;3.25;;
66478;SDS011;53294;47.912;13.526;2022-07-19T00:09:39;5.07;;;2.78;;
66478;SDS011;53294;47.912;13.526;2022-07-19T00:12:06;6.07;;;2.92;;
66478;SDS011;53294;47.912;13.526;2022-07-19T00:14:32;4.25;;;2.85;;
66478;SDS011;53294;47.912;13.526;2022-07-19T00:16:59;4.30;;;3.03;;
66478;SDS011;53294;47.912;13.526;2022-07-19T00:19:26;4.47;;;2.78;;
66478;SDS011;53294;47.912;13.526;2022-07-19T00:21:53;4.95;;;2.60;;
66478;SDS011;53294;47.912;13.526;2022-07-19T00:24:19;3.15;;;2.53;;
66478;SDS011;53294;47.912;13.526;2022-07-19T00:26:46;3.70;;;2.65;;
66478;SDS011;53294;47.912;13.526;2022-07-19T00:29:13;4.93;;;2.83;;
66478;SDS011;53294;47.912;13.526;2022-07-19T00:31:39;5.00;;;3.08;;
66478;SDS011;53294;47.912;13.526;2022-07-19T00:34:06;3.58;;;2.38;;
66478;SDS011;53294;47.912;13.526;2022-07-19T00:36:33;3.90;;;2.60;;
66478;SDS011;53294;47.912;13.526;2022-07-19T00:38:59;4.40;;;2.63;;
66478;SDS011;53294;47.912;13.526;2022-07-19T00:41:26;3.92;;;2.72;;
66478;SDS011;53294;47.912;13.526;2022-07-19T00:43:53;4.18;;;2.78;;
66478;SDS011;53294;47.912;13.526;2022-07-19T00:46:20;3.92;;;2.72;;
66478;SDS011;53294;47.912;13.526;2022-07-19T00:48:48;4.68;;;3.00;;
66478;SDS011;53294;47.912;13.526;2022-07-19T00:51:16;3.63;;;2.63;;
66478;SDS011;53294;47.912;13.526;2022-07-19T00:53:44;6.10;;;2.70;;
66478;SDS011;53294;47.912;13.526;2022-07-19T00:56:11;4.90;;;2.97;;
66478;SDS011;53294;47.912;13.526;2022-07-19T00:58:39;5.70;;;3.13;;
66478;SDS011;53294;47.912;13.526;2022-07-19T01:01:08;6.10;;;2.80;;
66478;SDS011;53294;47.912;13.526;2022-07-19T01:03:36;4.97;;;3.28;;
66478;SDS011;53294;47.912;13.526;2022-07-19T01:06:05;4.85;;;3.03;;
66478;SDS011;53294;47.912;13.526;2022-07-19T01:08:34;4.10;;;2.72;;
66478;SDS011;53294;47.912;13.526;2022-07-19T01:11:03;5.22;;;2.72;;
66478;SDS011;53294;47.912;13.526;2022-07-19T01:13:31;4.00;;;2.90;;
66478;SDS011;53294;47.912;13.526;2022-07-19T01:15:59;5.20;;;2.90;;
66478;SDS011;53294;47.912;13.526;2022-07-19T01:18:27;4.70;;;3.10;;
66478;SDS011;53294;47.912;13.526;2022-07-19T01:20:54;5.50;;;3.00;;
66478;SDS011;53294;47.912;13.526;2022-07-19T01:23:22;3.72;;;2.63;;
66478;SDS011;53294;47.912;13.526;2022-07-19T01:25:49;4.22;;;3.05;;
66478;SDS011;53294;47.912;13.526;2022-07-19T01:28:16;4.38;;;2.72;;
66478;SDS011;53294;47.912;13.526;2022-07-19T01:30:43;4.57;;;3.00;;
66478;SDS011;53294;47.912;13.526;2022-07-19T01:33:11;5.03;;;3.10;;
66478;SDS011;53294;47.912;13.526;2022-07-19T01:35:38;4.82;;;3.08;;
66478;SDS011;53294;47.912;13.526;2022-07-19T01:38:04;4.00;;;2.90;;
66478;SDS011;53294;47.912;13.526;2022-07-19T01:40:31;3.83;;;2.83;;
66478;SDS011;53294;47.912;13.526;2022-07-19T01:42:59;4.40;;;3.00;;
66478;SDS011;53294;47.912;13.526;2022-07-19T01:45:26;4.60;;;3.03;;
66478;SDS011;53294;47.912;13.526;2022-07-19T01:47:53;4.70;;;2.78;;
66478;SDS011;53294;47.912;13.526;2022-07-19T01:50:20;4.07;;;2.90;;
66478;SDS011;53294;47.912;13.526;2022-07-19T01:52:47;4.20;;;2.97;;
66478;SDS011;53294;47.912;13.526;2022-07-19T01:55:17;4.63;;;2.85;;
66478;SDS011;53294;47.912;13.526;2022-07-19T01:57:48;4.93;;;3.45;;
66478;SDS011;53294;47.912;13.526;2022-07-19T02:00:15;5.63;;;3.17;;
66478;SDS011;53294;47.912;13.526;2022-07-19T02:02:41;4.45;;;2.80;;
66478;SDS011;53294;47.912;13.526;2022-07-19T02:05:08;4.45;;;3.08;;
66478;SDS011;53294;47.912;13.526;2022-07-19T02:07:36;4.32;;;2.80;;
66478;SDS011;53294;47.912;13.526;2022-07-19T02:10:04;4.53;;;3.40;;
66478;SDS011;53294;47.912;13.526;2022-07-19T02:12:32;4.22;;;3.08;;
66478;SDS011;53294;47.912;13.526;2022-07-19T02:14:59;4.25;;;2.72;;
66478;SDS011;53294;47.912;13.526;2022-07-19T02:17:26;4.22;;;2.97;;
66478;SDS011;53294;47.912;13.526;2022-07-19T02:19:52;5.35;;;3.30;;
66478;SDS011;53294;47.912;13.526;2022-07-19T02:22:19;8.02;;;3.40;;
66478;SDS011;53294;47.912;13.526;2022-07-19T02:24:45;5.85;;;3.50;;
66478;SDS011;53294;47.912;13.526;2022-07-19T02:27:12;4.57;;;3.28;;
66478;SDS011;53294;47.912;13.526;2022-07-19T02:29:39;5.97;;;3.35;;
66478;SDS011;53294;47.912;13.526;2022-07-19T02:32:06;4.93;;;3.20;;
66478;SDS011;53294;47.912;13.526;2022-07-19T02:34:33;4.18;;;3.10;;
66478;SDS011;53294;47.912;13.526;2022-07-19T02:37:01;5.15;;;3.00;;
66478;SDS011;53294;47.912;13.526;2022-07-19T02:39:28;4.53;;;3.00;;
66478;SDS011;53294;47.912;13.526;2022-07-19T02:41:56;4.80;;;3.30;;
66478;SDS011;53294;47.912;13.526;2022-07-19T02:44:22;5.72;;;3.42;;
66478;SDS011;53294;47.912;13.526;2022-07-19T02:46:49;4.60;;;3.40;;
66478;SDS011;53294;47.912;13.526;2022-07-19T02:49:16;4.45;;;3.40;;
66478;SDS011;53294;47.912;13.526;2022-07-19T02:51:43;4.75;;;3.05;;
66478;SDS011;53294;47.912;13.526;2022-07-19T02:54:09;5.45;;;3.35;;
66478;SDS011;53294;47.912;13.526;2022-07-19T02:56:36;4.72;;;3.17;;
66478;SDS011;53294;47.912;13.526;2022-07-19T02:59:03;5.03;;;3.13;;
66478;SDS011;53294;47.912;13.526;2022-07-19T03:01:31;3.75;;;2.95;;
66478;SDS011;53294;47.912;13.526;2022-07-19T03:03:58;7.97;;;3.30;;
66478;SDS011;53294;47.912;13.526;2022-07-19T03:06:26;4.72;;;3.42;;
66478;SDS011;53294;47.912;13.526;2022-07-19T03:08:53;5.50;;;3.50;;
66478;SDS011;53294;47.912;13.526;2022-07-19T03:11:20;5.05;;;3.50;;
66478;SDS011;53294;47.912;13.526;2022-07-19T03:13:47;5.22;;;3.65;;
66478;SDS011;53294;47.912;13.526;2022-07-19T03:16:14;5.38;;;3.60;;
66478;SDS011;53294;47.912;13.526;2022-07-19T03:18:41;5.03;;;3.20;;
66478;SDS011;53294;47.912;13.526;2022-07-19T03:21:08;4.80;;;3.00;;
66478;SDS011;53294;47.912;13.526;2022-07-19T03:23:35;4.63;;;3.10;;
66478;SDS011;53294;47.912;13.526;2022-07-19T03:26:03;4.93;;;3.40;;
66478;SDS011;53294;47.912;13.526;2022-07-19T03:28:31;4.50;;;3.10;;
66478;SDS011;53294;47.912;13.526;2022-07-19T03:30:57;4.78;;;3.47;;
66478;SDS011;53294;47.912;13.526;2022-07-19T03:33:24;4.57;;;2.97;;
66478;SDS011;53294;47.912;13.526;2022-07-19T03:35:51;5.00;;;3.15;;
66478;SDS011;53294;47.912;13.526;2022-07-19T03:38:18;5.45;;;3.60;;
66478;SDS011;53294;47.912;13.526;2022-07-19T03:40:45;4.38;;;3.30;;
66478;SDS011;53294;47.912;13.526;2022-07-19T03:43:16;4.97;;;3.50;;
66478;SDS011;53294;47.912;13.526;2022-07-19T03:45:43;5.78;;;3.33;;
66478;SDS011;53294;47.912;13.526;2022-07-19T03:48:11;5.22;;;3.40;;
66478;SDS011;53294;47.912;13.526;2022-07-19T03:50:38;4.78;;;3.03;;
66478;SDS011;53294;47.912;13.526;2022-07-19T03:53:05;4.10;;;3.00;;
66478;SDS011;53294;47.912;13.526;2022-07-19T03:55:32;5.10;;;3.60;;
66478;SDS011;53294;47.912;13.526;2022-07-19T03:57:59;4.78;;;3.30;;
66478;SDS011;53294;47.912;13.526;2022-07-19T04:00:26;5.25;;;3.47;;
66478;SDS011;53294;47.912;13.526;2022-07-19T04:02:53;4.47;;;3.42;;
66478;SDS011;53294;47.912;13.526;2022-07-19T04:05:20;6.45;;;3.45;;
66478;SDS011;53294;47.912;13.526;2022-07-19T04:07:47;5.00;;;3.33;;
66478;SDS011;53294;47.912;13.526;2022-07-19T04:10:13;5.05;;;3.45;;
66478;SDS011;53294;47.912;13.526;2022-07-19T04:12:40;4.93;;;3.10;;
66478;SDS011;53294;47.912;13.526;2022-07-19T04:15:07;4.60;;;3.05;;
66478;SDS011;53294;47.912;13.526;2022-07-19T04:17:34;3.90;;;2.90;;
66478;SDS011;53294;47.912;13.526;2022-07-19T04:20:01;3.95;;;2.85;;
66478;SDS011;53294;47.912;13.526;2022-07-19T04:22:28;4.35;;;2.75;;
66478;SDS011;53294;47.912;13.526;2022-07-19T04:24:54;5.57;;;2.97;;
66478;SDS011;53294;47.912;13.526;2022-07-19T04:27:21;5.05;;;3.28;;
66478;SDS011;53294;47.912;13.526;2022-07-19T04:29:48;4.07;;;2.65;;
66478;SDS011;53294;47.912;13.526;2022-07-19T04:32:14;4.05;;;2.90;;
66478;SDS011;53294;47.912;13.526;2022-07-19T04:34:46;6.35;;;3.47;;
66478;SDS011;53294;47.912;13.526;2022-07-19T04:37:12;5.45;;;3.25;;
66478;SDS011;53294;47.912;13.526;2022-07-19T04:39:39;3.95;;;2.95;;
66478;SDS011;53294;47.912;13.526;2022-07-19T04:42:06;4.63;;;3.08;;
66478;SDS011;53294;47.912;13.526;2022-07-19T04:44:33;4.63;;;2.80;;
66478;SDS011;53294;47.912;13.526;2022-07-19T04:47:00;4.13;;;3.10;;
66478;SDS011;53294;47.912;13.526;2022-07-19T04:49:27;4.57;;;2.80;;
66478;SDS011;53294;47.912;13.526;2022-07-19T04:51:53;4.50;;;2.97;;
66478;SDS011;53294;47.912;13.526;2022-07-19T04:54:20;3.88;;;3.10;;
66478;SDS011;53294;47.912;13.526;2022-07-19T04:56:47;6.13;;;3.50;;
66478;SDS011;53294;47.912;13.526;2022-07-19T04:59:13;4.30;;;3.13;;
66478;SDS011;53294;47.912;13.526;2022-07-19T05:01:40;4.45;;;3.10;;
66478;SDS011;53294;47.912;13.526;2022-07-19T05:04:09;4.00;;;2.80;;
66478;SDS011;53294;47.912;13.526;2022-07-19T05:06:36;5.70;;;2.83;;
66478;SDS011;53294;47.912;13.526;2022-07-19T05:09:03;4.72;;;3.17;;
66478;SDS011;53294;47.912;13.526;2022-07-19T05:11:30;4.63;;;3.20;;
66478;SDS011;53294;47.912;13.526;2022-07-19T05:13:56;5.55;;;3.58;;
66478;SDS011;53294;47.912;13.526;2022-07-19T05:16:23;4.38;;;3.38;;
66478;SDS011;53294;47.912;13.526;2022-07-19T05:18:50;4.40;;;3.25;;
66478;SDS011;53294;47.912;13.526;2022-07-19T05:21:17;5.45;;;3.40;;
66478;SDS011;53294;47.912;13.526;2022-07-19T05:23:44;5.72;;;3.25;;
66478;SDS011;53294;47.912;13.526;2022-07-19T05:26:10;4.43;;;3.22;;
66478;SDS011;53294;47.912;13.526;2022-07-19T05:28:37;4.43;;;3.08;;
66478;SDS011;53294;47.912;13.526;2022-07-19T05:31:04;5.28;;;3.38;;
66478;SDS011;53294;47.912;13.526;2022-07-19T05:33:31;5.18;;;3.80;;
66478;SDS011;53294;47.912;13.526;2022-07-19T05:35:58;6.20;;;3.70;;
66478;SDS011;53294;47.912;13.526;2022-07-19T05:38:24;4.70;;;3.65;;
66478;SDS011;53294;47.912;13.526;2022-07-19T05:40:51;7.32;;;3.80;;
66478;SDS011;53294;47.912;13.526;2022-07-19T05:43:18;6.78;;;4.22;;
66478;SDS011;53294;47.912;13.526;2022-07-19T05:45:44;7.35;;;4.10;;
66478;SDS011;53294;47.912;13.526;2022-07-19T05:48:11;5.88;;;4.00;;
66478;SDS011;53294;47.912;13.526;2022-07-19T05:50:38;6.38;;;3.42;;
66478;SDS011;53294;47.912;13.526;2022-07-19T05:53:05;6.10;;;4.15;;
66478;SDS011;53294;47.912;13.526;2022-07-19T05:55:31;5.45;;;4.03;;
66478;SDS011;53294;47.912;13.526;2022-07-19T05:57:58;6.50;;;3.80;;
66478;SDS011;53294;47.912;13.526;2022-07-19T06:00:25;8.35;;;5.40;;
66478;SDS011;53294;47.912;13.526;2022-07-19T06:02:52;9.52;;;5.80;;
66478;SDS011;53294;47.912;13.526;2022-07-19T06:05:18;5.72;;;3.95;;
66478;SDS011;53294;47.912;13.526;2022-07-19T06:07:45;5.68;;;3.80;;
66478;SDS011;53294;47.912;13.526;2022-07-19T06:10:12;7.50;;;3.92;;
66478;SDS011;53294;47.912;13.526;2022-07-19T06:12:38;4.35;;;2.88;;
66478;SDS011;53294;47.912;13.526;2022-07-19T06:15:05;5.45;;;2.60;;
66478;SDS011;53294;47.912;13.526;2022-07-19T06:17:33;5.32;;;3.17;;
66478;SDS011;53294;47.912;13.526;2022-07-19T06:20:00;6.20;;;3.47;;
66478;SDS011;53294;47.912;13.526;2022-07-19T06:22:30;5.43;;;3.75;;
66478;SDS011;53294;47.912;13.526;2022-07-19T06:24:57;6.45;;;3.83;;
66478;SDS011;53294;47.912;13.526;2022-07-19T06:27:25;4.75;;;3.00;;
66478;SDS011;53294;47.912;13.526;2022-07-19T06:29:52;4.47;;;3.03;;
66478;SDS011;53294;47.912;13.526;2022-07-19T06:32:18;4.65;;;3.13;;
66478;SDS011;53294;47.912;13.526;2022-07-19T06:34:45;6.40;;;3.80;;
66478;SDS011;53294;47.912;13.526;2022-07-19T06:37:12;6.60;;;4.10;;
66478;SDS011;53294;47.912;13.526;2022-07-19T06:39:38;8.07;;;4.10;;
66478;SDS011;53294;47.912;13.526;2022-07-19T06:42:05;6.55;;;3.83;;
66478;SDS011;53294;47.912;13.526;2022-07-19T06:44:32;5.55;;;3.92;;
66478;SDS011;53294;47.912;13.526;2022-07-19T06:46:58;5.72;;;3.78;;
66478;SDS011;53294;47.912;13.526;2022-07-19T06:49:25;6.78;;;3.65;;
66478;SDS011;53294;47.912;13.526;2022-07-19T06:51:52;7.18;;;4.32;;
66478;SDS011;53294;47.912;13.526;2022-07-19T06:54:19;5.65;;;4.05;;
66478;SDS011;53294;47.912;13.526;2022-07-19T06:56:46;6.43;;;4.20;;
66478;SDS011;53294;47.912;13.526;2022-07-19T06:59:13;9.05;;;4.57;;
66478;SDS011;53294;47.912;13.526;2022-07-19T07:01:39;9.38;;;5.22;;
66478;SDS011;53294;47.912;13.526;2022-07-19T07:04:06;9.10;;;4.97;;
66478;SDS011;53294;47.912;13.526;2022-07-19T07:06:33;7.10;;;5.00;;
66478;SDS011;53294;47.912;13.526;2022-07-19T07:09:00;9.25;;;4.90;;
66478;SDS011;53294;47.912;13.526;2022-07-19T07:11:27;9.52;;;4.65;;
66478;SDS011;53294;47.912;13.526;2022-07-19T07:13:54;7.57;;;5.03;;
66478;SDS011;53294;47.912;13.526;2022-07-19T07:16:21;7.32;;;4.40;;
66478;SDS011;53294;47.912;13.526;2022-07-19T07:18:48;6.45;;;4.88;;
66478;SDS011;53294;47.912;13.526;2022-07-19T07:21:14;8.10;;;5.05;;
66478;SDS011;53294;47.912;13.526;2022-07-19T07:23:41;6.05;;;4.40;;
66478;SDS011;53294;47.912;13.526;2022-07-19T07:26:08;7.32;;;4.57;;
66478;SDS011;53294;47.912;13.526;2022-07-19T07:28:35;7.07;;;4.60;;
66478;SDS011;53294;47.912;13.526;2022-07-19T07:31:01;7.05;;;4.18;;
66478;SDS011;53294;47.912;13.526;2022-07-19T07:33:28;6.43;;;4.50;;
66478;SDS011;53294;47.912;13.526;2022-07-19T07:35:55;7.95;;;4.53;;
66478;SDS011;53294;47.912;13.526;2022-07-19T07:38:22;6.85;;;4.25;;
66478;SDS011;53294;47.912;13.526;2022-07-19T07:40:48;6.78;;;4.30;;
66478;SDS011;53294;47.912;13.526;2022-07-19T07:43:19;7.07;;;4.45;;
66478;SDS011;53294;47.912;13.526;2022-07-19T07:45:46;6.13;;;4.30;;
66478;SDS011;53294;47.912;13.526;2022-07-19T07:48:12;7.30;;;4.43;;
66478;SDS011;53294;47.912;13.526;2022-07-19T07:50:39;6.57;;;4.10;;
66478;SDS011;53294;47.912;13.526;2022-07-19T07:53:06;7.38;;;4.38;;
66478;SDS011;53294;47.912;13.526;2022-07-19T07:55:33;7.20;;;4.03;;
66478;SDS011;53294;47.912;13.526;2022-07-19T07:58:08;5.65;;;4.03;;
66478;SDS011;53294;47.912;13.526;2022-07-19T08:00:37;6.15;;;4.20;;
66478;SDS011;53294;47.912;13.526;2022-07-19T08:03:06;5.40;;;4.32;;
66478;SDS011;53294;47.912;13.526;2022-07-19T08:05:33;6.20;;;4.50;;
66478;SDS011;53294;47.912;13.526;2022-07-19T08:08:00;7.32;;;4.72;;
66478;SDS011;53294;47.912;13.526;2022-07-19T08:10:28;6.85;;;4.05;;
66478;SDS011;53294;47.912;13.526;2022-07-19T08:12:58;5.35;;;3.38;;
66478;SDS011;53294;47.912;13.526;2022-07-19T08:15:33;8.95;;;5.13;;
66478;SDS011;53294;47.912;13.526;2022-07-19T08:17:59;7.70;;;4.72;;
66478;SDS011;53294;47.912;13.526;2022-07-19T08:20:26;7.82;;;5.10;;
66478;SDS011;53294;47.912;13.526;2022-07-19T08:22:53;6.55;;;4.50;;
66478;SDS011;53294;47.912;13.526;2022-07-19T08:25:20;6.82;;;5.10;;
66478;SDS011;53294;47.912;13.526;2022-07-19T08:27:46;7.25;;;4.55;;
66478;SDS011;53294;47.912;13.526;2022-07-19T08:30:13;8.70;;;5.03;;
66478;SDS011;53294;47.912;13.526;2022-07-19T08:32:40;9.43;;;5.68;;
66478;SDS011;53294;47.912;13.526;2022-07-19T08:35:08;9.18;;;5.95;;
66478;SDS011;53294;47.912;13.526;2022-07-19T08:37:35;7.95;;;5.18;;
66478;SDS011;53294;47.912;13.526;2022-07-19T08:40:03;6.35;;;4.53;;
66478;SDS011;53294;47.912;13.526;2022-07-19T08:42:31;6.25;;;4.45;;
66478;SDS011;53294;47.912;13.526;2022-07-19T08:45:03;6.43;;;4.38;;
66478;SDS011;53294;47.912;13.526;2022-07-19T08:47:32;6.28;;;4.50;;
66478;SDS011;53294;47.912;13.526;2022-07-19T08:50:01;7.68;;;4.95;;
66478;SDS011;53294;47.912;13.526;2022-07-19T08:52:32;10.05;;;4.72;;
66478;SDS011;53294;47.912;13.526;2022-07-19T08:55:00;5.45;;;4.03;;
66478;SDS011;53294;47.912;13.526;2022-07-19T08:57:29;5.95;;;3.58;;
66478;SDS011;53294;47.912;13.526;2022-07-19T09:00:15;4.68;;;3.17;;
66478;SDS011;53294;47.912;13.526;2022-07-19T09:03:25;4.88;;;3.20;;
66478;SDS011;53294;47.912;13.526;2022-07-19T09:05:33;4.82;;;2.90;;
66478;SDS011;53294;47.912;13.526;2022-07-19T09:08:06;6.35;;;2.95;;
66478;SDS011;53294;47.912;13.526;2022-07-19T09:10:34;5.13;;;2.75;;
66478;SDS011;53294;47.912;13.526;2022-07-19T09:13:15;4.90;;;3.03;;
66478;SDS011;53294;47.912;13.526;2022-07-19T09:18:14;5.55;;;3.42;;
66478;SDS011;53294;47.912;13.526;2022-07-19T09:20:52;5.72;;;3.45;;
66478;SDS011;53294;47.912;13.526;2022-07-19T09:23:20;5.40;;;3.15;;
66478;SDS011;53294;47.912;13.526;2022-07-19T09:28:19;6.07;;;3.33;;
66478;SDS011;53294;47.912;13.526;2022-07-19T09:30:47;5.95;;;2.97;;
66478;SDS011;53294;47.912;13.526;2022-07-19T09:33:16;6.07;;;2.70;;
66478;SDS011;53294;47.912;13.526;2022-07-19T09:35:51;5.32;;;2.80;;
66478;SDS011;53294;47.912;13.526;2022-07-19T09:40:54;5.80;;;2.38;;
66478;SDS011;53294;47.912;13.526;2022-07-19T09:49:08;3.85;;;2.25;;
66478;SDS011;53294;47.912;13.526;2022-07-19T09:51:36;4.13;;;2.00;;
66478;SDS011;53294;47.912;13.526;2022-07-19T09:54:05;3.92;;;2.10;;
66478;SDS011;53294;47.912;13.526;2022-07-19T09:56:33;3.10;;;1.98;;
66478;SDS011;53294;47.912;13.526;2022-07-19T09:59:02;3.28;;;1.90;;
66478;SDS011;53294;47.912;13.526;2022-07-19T10:01:30;3.67;;;2.28;;
66478;SDS011;53294;47.912;13.526;2022-07-19T10:03:58;3.88;;;2.20;;
66478;SDS011;53294;47.912;13.526;2022-07-19T10:06:28;3.35;;;2.25;;
66478;SDS011;53294;47.912;13.526;2022-07-19T10:08:56;5.50;;;2.22;;
66478;SDS011;53294;47.912;13.526;2022-07-19T10:11:24;3.95;;;2.28;;
66478;SDS011;53294;47.912;13.526;2022-07-19T10:13:51;4.65;;;2.13;;
66478;SDS011;53294;47.912;13.526;2022-07-19T10:22:06;2.85;;;1.90;;
66478;SDS011;53294;47.912;13.526;2022-07-19T10:24:56;6.07;;;2.30;;
66478;SDS011;53294;47.912;13.526;2022-07-19T10:27:38;3.33;;;1.88;;
66478;SDS011;53294;47.912;13.526;2022-07-19T10:32:36;2.88;;;1.90;;
66478;SDS011;53294;47.912;13.526;2022-07-19T10:37:52;4.30;;;1.92;;
66478;SDS011;53294;47.912;13.526;2022-07-19T10:48:41;2.45;;;1.50;;
66478;SDS011;53294;47.912;13.526;2022-07-19T10:51:29;3.22;;;1.80;;
66478;SDS011;53294;47.912;13.526;2022-07-19T10:56:33;2.42;;;1.50;;
66478;SDS011;53294;47.912;13.526;2022-07-19T10:59:34;4.50;;;2.00;;
66478;SDS011;53294;47.912;13.526;2022-07-19T11:02:06;2.80;;;1.67;;
66478;SDS011;53294;47.912;13.526;2022-07-19T11:05:07;4.57;;;1.98;;
66478;SDS011;53294;47.912;13.526;2022-07-19T11:07:49;3.78;;;1.80;;
66478;SDS011;53294;47.912;13.526;2022-07-19T11:10:23;3.03;;;1.67;;
66478;SDS011;53294;47.912;13.526;2022-07-19T11:12:52;2.47;;;1.60;;
66478;SDS011;53294;47.912;13.526;2022-07-19T11:15:19;2.72;;;1.50;;
66478;SDS011;53294;47.912;13.526;2022-07-19T11:17:55;3.65;;;1.83;;
66478;SDS011;53294;47.912;13.526;2022-07-19T11:20:25;3.20;;;1.83;;
66478;SDS011;53294;47.912;13.526;2022-07-19T11:22:54;3.65;;;1.73;;
66478;SDS011;53294;47.912;13.526;2022-07-19T11:27:55;2.10;;;1.50;;
66478;SDS011;53294;47.912;13.526;2022-07-19T11:30:23;3.97;;;1.63;;
66478;SDS011;53294;47.912;13.526;2022-07-19T11:32:55;3.10;;;1.52;;
66478;SDS011;53294;47.912;13.526;2022-07-19T11:35:24;3.00;;;1.60;;
66478;SDS011;53294;47.912;13.526;2022-07-19T11:37:52;3.75;;;1.80;;
66478;SDS011;53294;47.912;13.526;2022-07-19T11:40:21;5.55;;;1.60;;
66478;SDS011;53294;47.912;13.526;2022-07-19T11:42:49;3.33;;;1.55;;
66478;SDS011;53294;47.912;13.526;2022-07-19T11:45:40;3.75;;;1.70;;
66478;SDS011;53294;47.912;13.526;2022-07-19T11:48:11;3.40;;;1.60;;
66478;SDS011;53294;47.912;13.526;2022-07-19T11:50:37;3.65;;;1.67;;
66478;SDS011;53294;47.912;13.526;2022-07-19T11:53:18;3.65;;;1.63;;
66478;SDS011;53294;47.912;13.526;2022-07-19T11:55:46;2.20;;;1.45;;
66478;SDS011;53294;47.912;13.526;2022-07-19T11:58:14;3.05;;;1.60;;
66478;SDS011;53294;47.912;13.526;2022-07-19T12:00:41;2.40;;;1.50;;
66478;SDS011;53294;47.912;13.526;2022-07-19T12:03:17;4.18;;;1.98;;
66478;SDS011;53294;47.912;13.526;2022-07-19T12:06:07;3.38;;;1.80;;
66478;SDS011;53294;47.912;13.526;2022-07-19T12:08:40;3.72;;;1.42;;
66478;SDS011;53294;47.912;13.526;2022-07-19T12:13:44;3.92;;;1.80;;
66478;SDS011;53294;47.912;13.526;2022-07-19T12:16:15;2.35;;;1.88;;
66478;SDS011;53294;47.912;13.526;2022-07-19T12:26:40;2.85;;;1.60;;
66478;SDS011;53294;47.912;13.526;2022-07-19T12:31:47;2.90;;;1.70;;
66478;SDS011;53294;47.912;13.526;2022-07-19T12:34:15;3.40;;;1.85;;
66478;SDS011;53294;47.912;13.526;2022-07-19T12:36:43;4.90;;;2.10;;
66478;SDS011;53294;47.912;13.526;2022-07-19T12:39:24;4.43;;;1.95;;
66478;SDS011;53294;47.912;13.526;2022-07-19T12:42:04;3.50;;;1.83;;
66478;SDS011;53294;47.912;13.526;2022-07-19T12:44:33;3.75;;;1.90;;
66478;SDS011;53294;47.912;13.526;2022-07-19T12:47:00;3.47;;;1.83;;
66478;SDS011;53294;47.912;13.526;2022-07-19T12:49:48;2.92;;;1.63;;
66478;SDS011;53294;47.912;13.526;2022-07-19T12:52:29;4.53;;;1.98;;
66478;SDS011;53294;47.912;13.526;2022-07-19T12:54:56;4.20;;;2.10;;
66478;SDS011;53294;47.912;13.526;2022-07-19T12:57:22;4.43;;;1.75;;
66478;SDS011;53294;47.912;13.526;2022-07-19T12:59:49;3.70;;;1.70;;
66478;SDS011;53294;47.912;13.526;2022-07-19T13:02:16;3.70;;;1.80;;
66478;SDS011;53294;47.912;13.526;2022-07-19T13:04:44;3.20;;;1.83;;
66478;SDS011;53294;47.912;13.526;2022-07-19T13:07:12;2.47;;;1.60;;
66478;SDS011;53294;47.912;13.526;2022-07-19T13:09:39;3.85;;;2.15;;
66478;SDS011;53294;47.912;13.526;2022-07-19T13:12:07;3.78;;;1.80;;
66478;SDS011;53294;47.912;13.526;2022-07-19T13:14:35;2.25;;;1.65;;
66478;SDS011;53294;47.912;13.526;2022-07-19T13:17:02;4.53;;;2.00;;
66478;SDS011;53294;47.912;13.526;2022-07-19T13:19:30;3.63;;;1.77;;
66478;SDS011;53294;47.912;13.526;2022-07-19T13:21:57;4.57;;;1.80;;
66478;SDS011;53294;47.912;13.526;2022-07-19T13:24:24;2.95;;;1.80;;
66478;SDS011;53294;47.912;13.526;2022-07-19T13:27:11;3.15;;;1.95;;
66478;SDS011;53294;47.912;13.526;2022-07-19T13:29:37;2.35;;;1.63;;
66478;SDS011;53294;47.912;13.526;2022-07-19T13:32:04;3.47;;;1.90;;
66478;SDS011;53294;47.912;13.526;2022-07-19T13:34:32;4.00;;;2.30;;
66478;SDS011;53294;47.912;13.526;2022-07-19T13:36:59;3.85;;;1.90;;
66478;SDS011;53294;47.912;13.526;2022-07-19T13:39:26;2.50;;;1.85;;
66478;SDS011;53294;47.912;13.526;2022-07-19T13:41:52;5.90;;;2.35;;
66478;SDS011;53294;47.912;13.526;2022-07-19T13:44:19;5.93;;;2.17;;
66478;SDS011;53294;47.912;13.526;2022-07-19T13:46:46;3.65;;;1.80;;
66478;SDS011;53294;47.912;13.526;2022-07-19T13:49:13;5.28;;;2.15;;
66478;SDS011;53294;47.912;13.526;2022-07-19T13:51:39;4.38;;;1.88;;
66478;SDS011;53294;47.912;13.526;2022-07-19T13:54:07;4.20;;;2.05;;
66478;SDS011;53294;47.912;13.526;2022-07-19T13:56:34;4.80;;;2.03;;
66478;SDS011;53294;47.912;13.526;2022-07-19T13:59:01;6.15;;;2.20;;
66478;SDS011;53294;47.912;13.526;2022-07-19T14:01:30;4.30;;;1.90;;
66478;SDS011;53294;47.912;13.526;2022-07-19T14:04:13;3.92;;;2.20;;
66478;SDS011;53294;47.912;13.526;2022-07-19T14:06:48;4.93;;;2.05;;
66478;SDS011;53294;47.912;13.526;2022-07-19T14:09:15;6.63;;;2.15;;
66478;SDS011;53294;47.912;13.526;2022-07-19T14:11:42;4.03;;;2.10;;
66478;SDS011;53294;47.912;13.526;2022-07-19T14:14:11;4.00;;;2.08;;
66478;SDS011;53294;47.912;13.526;2022-07-19T14:16:38;3.92;;;2.13;;
66478;SDS011;53294;47.912;13.526;2022-07-19T14:19:06;3.15;;;1.92;;
66478;SDS011;53294;47.912;13.526;2022-07-19T14:21:33;3.63;;;2.10;;
66478;SDS011;53294;47.912;13.526;2022-07-19T14:24:01;4.28;;;2.13;;
66478;SDS011;53294;47.912;13.526;2022-07-19T14:26:28;3.10;;;1.95;;
66478;SDS011;53294;47.912;13.526;2022-07-19T14:28:54;4.05;;;2.05;;
66478;SDS011;53294;47.912;13.526;2022-07-19T14:31:21;2.85;;;1.90;;
66478;SDS011;53294;47.912;13.526;2022-07-19T14:33:48;3.35;;;1.90;;
66478;SDS011;53294;47.912;13.526;2022-07-19T14:36:35;4.82;;;1.90;;
66478;SDS011;53294;47.912;13.526;2022-07-19T14:39:02;6.53;;;2.30;;
66478;SDS011;53294;47.912;13.526;2022-07-19T14:41:29;5.32;;;2.10;;
66478;SDS011;53294;47.912;13.526;2022-07-19T14:43:55;3.88;;;2.15;;
66478;SDS011;53294;47.912;13.526;2022-07-19T14:46:22;3.70;;;1.80;;
66478;SDS011;53294;47.912;13.526;2022-07-19T14:48:49;3.92;;;2.13;;
66478;SDS011;53294;47.912;13.526;2022-07-19T14:51:16;4.00;;;2.10;;
66478;SDS011;53294;47.912;13.526;2022-07-19T14:53:43;4.85;;;2.17;;
66478;SDS011;53294;47.912;13.526;2022-07-19T14:56:10;3.83;;;1.80;;
66478;SDS011;53294;47.912;13.526;2022-07-19T14:58:37;4.55;;;2.45;;
66478;SDS011;53294;47.912;13.526;2022-07-19T15:01:04;4.50;;;2.03;;
66478;SDS011;53294;47.912;13.526;2022-07-19T15:03:31;4.30;;;2.15;;
66478;SDS011;53294;47.912;13.526;2022-07-19T15:05:59;4.22;;;1.90;;
66478;SDS011;53294;47.912;13.526;2022-07-19T15:08:26;4.60;;;2.03;;
66478;SDS011;53294;47.912;13.526;2022-07-19T15:10:53;5.80;;;1.98;;
66478;SDS011;53294;47.912;13.526;2022-07-19T15:13:20;4.88;;;2.22;;
66478;SDS011;53294;47.912;13.526;2022-07-19T15:15:47;4.25;;;2.00;;
66478;SDS011;53294;47.912;13.526;2022-07-19T15:18:14;4.32;;;2.15;;
66478;SDS011;53294;47.912;13.526;2022-07-19T15:20:42;3.00;;;2.00;;
66478;SDS011;53294;47.912;13.526;2022-07-19T15:23:09;3.67;;;2.03;;
66478;SDS011;53294;47.912;13.526;2022-07-19T15:25:37;2.97;;;1.90;;
66478;SDS011;53294;47.912;13.526;2022-07-19T15:28:03;4.78;;;1.70;;
66478;SDS011;53294;47.912;13.526;2022-07-19T15:30:30;4.07;;;2.00;;
66478;SDS011;53294;47.912;13.526;2022-07-19T15:32:57;5.85;;;1.90;;